Time;durP1;ratioP1;P1;durP2;ratioP2;P2;SDS_P1;SDS_P2;PMS_P1;PMS_P2;Temp;Humidity;BMP_temperature;BMP_pressure;BME280_temperature;BME280_humidity;BME280_pressure;Samples;Min_cycle;Max_cycle;Signal;HPM_P1;HPM_P2
2022/10/05 00:02:23;;;;;;;8.67;6.13;;;16.30;99.90;;;;;;5120220;27;20232;-88
2022/10/05 00:04:55;;;;;;;7.90;7.00;;;16.30;99.90;;;;;;5118317;28;20206;-89
2022/10/05 00:07:23;;;;;;;9.13;7.37;;;16.30;99.90;;;;;;5117370;28;20636;-88
2022/10/05 00:09:58;;;;;;;9.83;6.50;;;16.10;99.90;;;;;;5117381;28;20189;-89
2022/10/05 00:12:28;;;;;;;8.53;6.60;;;16.10;99.90;;;;;;5117572;28;20219;-89
2022/10/05 00:15:01;;;;;;;7.63;6.90;;;16.10;99.90;;;;;;5119789;28;20663;-88
2022/10/05 00:17:30;;;;;;;7.50;6.60;;;16.10;99.90;;;;;;5120296;28;20199;-90
2022/10/05 00:20:01;;;;;;;8.07;6.83;;;16.10;99.90;;;;;;5118064;28;20196;-90
2022/10/05 00:22:33;;;;;;;9.07;6.67;;;16.00;99.90;;;;;;5117641;28;20212;-90
2022/10/05 00:25:02;;;;;;;8.80;6.90;;;16.00;99.90;;;;;;5117366;28;20220;-88
2022/10/05 00:27:33;;;;;;;8.53;7.63;;;16.00;99.90;;;;;;5117458;28;20216;-91
2022/10/05 00:30:10;;;;;;;9.90;7.60;;;16.00;99.90;;;;;;5117537;27;20211;-91
2022/10/05 00:32:40;;;;;;;9.13;7.83;;;16.00;99.90;;;;;;5117095;28;20208;-88
2022/10/05 00:35:07;;;;;;;8.63;7.73;;;15.90;99.90;;;;;;5116994;28;20221;-90
2022/10/05 00:37:43;;;;;;;13.13;7.90;;;15.90;99.90;;;;;;5115925;28;20204;-91
2022/10/05 00:40:20;;;;;;;11.30;8.30;;;15.90;99.90;;;;;;5117107;27;20200;-89
2022/10/05 00:42:56;;;;;;;10.47;8.20;;;15.90;99.90;;;;;;5117833;28;20199;-90
2022/10/05 00:45:31;;;;;;;10.90;8.23;;;15.90;99.90;;;;;;5118143;28;20185;-93
2022/10/05 00:48:11;;;;;;;10.37;7.67;;;15.80;99.90;;;;;;5117426;28;20207;-91
2022/10/05 00:50:49;;;;;;;10.97;7.73;;;15.80;99.90;;;;;;5121915;28;20203;-89
2022/10/05 00:53:28;;;;;;;9.50;8.60;;;15.80;99.90;;;;;;5127516;28;20231;-90
2022/10/05 00:56:03;;;;;;;8.77;7.30;;;15.80;99.90;;;;;;5125063;27;20210;-86
2022/10/05 00:58:42;;;;;;;10.00;7.77;;;15.80;99.90;;;;;;5124144;28;20214;-91
2022/10/05 01:01:13;;;;;;;11.53;7.33;;;15.90;99.90;;;;;;5117753;28;20211;-85
2022/10/05 01:03:56;;;;;;;9.83;7.43;;;15.90;99.90;;;;;;5116580;28;20226;-84
2022/10/05 01:06:35;;;;;;;10.33;7.43;;;15.80;99.90;;;;;;5116536;28;20215;-83
2022/10/05 01:09:14;;;;;;;8.87;7.10;;;15.80;99.90;;;;;;5116366;28;20195;-90
2022/10/05 01:11:48;;;;;;;8.07;6.87;;;15.90;99.90;;;;;;5116209;28;20211;-89
2022/10/05 01:14:21;;;;;;;8.67;7.20;;;15.90;99.90;;;;;;5115958;28;20223;-85
2022/10/05 01:16:59;;;;;;;10.57;7.50;;;15.90;99.90;;;;;;5116654;28;20198;-85
2022/10/05 01:19:47;;;;;;;11.77;7.37;;;15.90;99.90;;;;;;5116568;28;20211;-88
2022/10/05 01:22:29;;;;;;;7.33;6.63;;;15.90;99.90;;;;;;5116314;28;20226;-90
2022/10/05 01:25:18;;;;;;;9.23;5.93;;;15.90;99.90;;;;;;5116313;28;20205;-89
2022/10/05 01:27:56;;;;;;;8.80;6.27;;;15.80;99.90;;;;;;5115935;28;20204;-89
2022/10/05 01:30:24;;;;;;;8.73;7.85;;;15.90;99.90;;;;;;5114656;28;20459;-86
2022/10/05 01:33:01;;;;;;;8.50;7.23;;;16.00;99.90;;;;;;5115526;28;20251;-85
2022/10/05 01:35:39;;;;;;;7.30;6.60;;;16.00;99.90;;;;;;5113567;28;20220;-84
2022/10/05 01:38:19;;;;;;;7.20;6.23;;;15.90;99.90;;;;;;5115034;27;20208;-83
2022/10/05 01:40:56;;;;;;;7.47;6.17;;;16.00;99.90;;;;;;5115905;28;20640;-84
2022/10/05 01:43:34;;;;;;;7.60;6.13;;;16.00;99.90;;;;;;5115374;28;20200;-85
2022/10/05 01:46:08;;;;;;;7.27;6.57;;;16.00;99.90;;;;;;5115278;28;20204;-84
2022/10/05 01:48:47;;;;;;;7.67;5.47;;;16.00;99.90;;;;;;5114827;28;20777;-85
2022/10/05 01:51:25;;;;;;;6.90;5.83;;;16.00;99.90;;;;;;5115759;28;20189;-88
2022/10/05 01:54:03;;;;;;;8.77;5.33;;;16.00;99.90;;;;;;5115015;28;20216;-84
2022/10/05 01:56:39;;;;;;;9.20;5.70;;;16.00;99.90;;;;;;5114781;28;20203;-84
2022/10/05 01:59:20;;;;;;;8.50;6.10;;;16.00;99.90;;;;;;5114812;28;20215;-84
2022/10/05 02:01:58;;;;;;;6.40;5.60;;;16.00;99.90;;;;;;5114663;28;20227;-85
2022/10/05 02:04:31;;;;;;;6.90;5.30;;;16.00;99.90;;;;;;5114492;28;20199;-84
2022/10/05 02:07:01;;;;;;;7.83;5.77;;;16.10;99.90;;;;;;5114836;28;20218;-85
2022/10/05 02:09:33;;;;;;;7.07;5.57;;;16.00;99.90;;;;;;5114663;28;20199;-84
2022/10/05 02:12:06;;;;;;;5.93;5.40;;;16.00;99.90;;;;;;5114750;28;20208;-85
2022/10/05 02:14:40;;;;;;;6.83;5.60;;;15.90;99.90;;;;;;5114440;28;20223;-86
2022/10/05 02:17:17;;;;;;;5.83;5.07;;;15.80;99.90;;;;;;5114631;28;20201;-85
2022/10/05 02:19:49;;;;;;;6.97;5.57;;;16.00;99.90;;;;;;5114181;28;20580;-84
2022/10/05 02:22:23;;;;;;;5.47;4.80;;;15.90;99.90;;;;;;5114934;28;20196;-85
2022/10/05 02:24:55;;;;;;;5.50;5.00;;;15.80;99.90;;;;;;5114603;28;20196;-85
2022/10/05 02:27:29;;;;;;;6.57;5.60;;;15.80;99.90;;;;;;5114766;28;20210;-91
2022/10/05 02:30:02;;;;;;;7.30;6.30;;;15.90;99.90;;;;;;5114015;28;20424;-89
2022/10/05 02:32:41;;;;;;;6.20;5.60;;;16.00;99.90;;;;;;5114962;28;20201;-90
2022/10/05 02:35:14;;;;;;;5.93;5.40;;;16.00;99.90;;;;;;5114732;28;20192;-92
2022/10/05 02:37:49;;;;;;;7.97;6.17;;;16.00;99.90;;;;;;5115132;28;20200;-89
2022/10/05 02:40:32;;;;;;;7.57;6.20;;;16.00;99.90;;;;;;5114670;28;20204;-91
2022/10/05 02:43:08;;;;;;;7.53;6.00;;;15.90;99.90;;;;;;5114625;28;20191;-90
2022/10/05 02:45:52;;;;;;;6.80;6.10;;;15.80;99.90;;;;;;5114641;28;20207;-93
2022/10/05 02:48:34;;;;;;;6.73;5.63;;;15.80;99.90;;;;;;5114534;28;20189;-90
2022/10/05 02:51:19;;;;;;;6.43;5.77;;;15.70;99.90;;;;;;5114714;28;20667;-91
2022/10/05 02:54:01;;;;;;;5.23;4.83;;;15.70;99.90;;;;;;5114684;28;20208;-92
2022/10/05 02:56:36;;;;;;;6.27;5.67;;;15.60;99.90;;;;;;5114934;28;20199;-91
2022/10/05 02:59:23;;;;;;;7.32;6.00;;;15.60;99.90;;;;;;5113706;28;20795;-93
2022/10/05 03:01:57;;;;;;;6.20;5.20;;;15.50;99.90;;;;;;5114523;28;20220;-92
2022/10/05 03:04:36;;;;;;;5.50;5.00;;;15.50;99.90;;;;;;5114727;28;20205;-85
2022/10/05 03:07:13;;;;;;;4.73;4.33;;;15.50;99.90;;;;;;5114511;28;20202;-85
2022/10/05 03:09:43;;;;;;;5.23;4.73;;;15.60;99.90;;;;;;5113799;28;20204;-88
2022/10/05 03:12:23;;;;;;;6.20;4.47;;;15.60;99.90;;;;;;5113650;28;20285;-89
2022/10/05 03:15:01;;;;;;;5.90;4.40;;;15.60;99.90;;;;;;5113712;28;20698;-85
2022/10/05 03:17:34;;;;;;;4.53;4.13;;;15.60;99.90;;;;;;5113366;28;20206;-85
2022/10/05 03:20:10;;;;;;;5.33;4.90;;;15.50;99.90;;;;;;5113567;28;20211;-87
2022/10/05 03:22:55;;;;;;;7.00;4.33;;;15.50;99.90;;;;;;5113770;28;20204;-89
2022/10/05 03:25:55;;;;;;;5.13;4.40;;;15.70;99.90;;;;;;5113990;28;20198;-87
2022/10/05 03:28:33;;;;;;;4.23;3.90;;;15.80;99.90;;;;;;5113744;28;20199;-90
2022/10/05 03:31:14;;;;;;;9.30;4.37;;;15.70;99.90;;;;;;5113595;28;20665;-90
2022/10/05 03:33:48;;;;;;;6.80;4.53;;;15.70;99.90;;;;;;5113556;28;20226;-91
2022/10/05 03:36:27;;;;;;;4.77;4.30;;;15.70;99.90;;;;;;5113595;28;20208;-91
2022/10/05 03:39:01;;;;;;;4.60;4.20;;;15.70;99.90;;;;;;5114904;28;20211;-86
2022/10/05 03:41:36;;;;;;;4.43;4.10;;;15.50;99.90;;;;;;5113794;28;20209;-88
2022/10/05 03:44:24;;;;;;;4.57;4.00;;;15.50;99.90;;;;;;5113423;28;20203;-91
2022/10/05 03:47:08;;;;;;;4.70;3.97;;;15.50;99.90;;;;;;5115596;28;20210;-87
2022/10/05 03:49:47;;;;;;;4.57;4.17;;;15.50;99.90;;;;;;5114692;28;20202;-85
2022/10/05 03:52:16;;;;;;;8.87;4.70;;;15.60;99.90;;;;;;5113337;28;20203;-89
2022/10/05 03:54:48;;;;;;;6.90;4.47;;;15.60;99.90;;;;;;5113698;28;20210;-84
2022/10/05 03:57:19;;;;;;;6.80;4.73;;;15.60;99.90;;;;;;5112749;28;20203;-85
2022/10/05 03:59:57;;;;;;;5.30;4.90;;;15.60;99.90;;;;;;5113411;28;20562;-85
2022/10/05 04:02:28;;;;;;;6.77;4.73;;;15.60;99.90;;;;;;5112695;28;20230;-85
2022/10/05 04:05:02;;;;;;;4.97;4.23;;;15.50;99.90;;;;;;5101567;28;20210;-89
2022/10/05 04:07:42;;;;;;;7.80;4.67;;;15.50;99.90;;;;;;5115855;28;20211;-89
2022/10/05 04:10:17;;;;;;;6.10;5.00;;;15.50;99.90;;;;;;5115361;28;20199;-89
2022/10/05 04:12:49;;;;;;;5.47;4.97;;;15.50;99.90;;;;;;5117250;28;20208;-90
2022/10/05 04:15:27;;;;;;;5.73;4.90;;;15.50;99.90;;;;;;5119646;28;20234;-89
2022/10/05 04:18:00;;;;;;;4.60;4.10;;;15.50;99.90;;;;;;5120560;28;20199;-86
2022/10/05 04:20:40;;;;;;;5.73;4.63;;;15.50;99.90;;;;;;5119799;28;20229;-89
2022/10/05 04:23:19;;;;;;;5.03;4.50;;;15.60;99.90;;;;;;5120011;28;20719;-89
2022/10/05 04:25:51;;;;;;;6.23;4.47;;;15.50;99.90;;;;;;5120283;28;20643;-88
2022/10/05 04:28:26;;;;;;;4.53;4.00;;;15.40;99.90;;;;;;5123674;28;20202;-89
2022/10/05 04:30:54;;;;;;;4.70;4.30;;;15.40;99.90;;;;;;5125918;28;20554;-89
2022/10/05 04:33:22;;;;;;;4.33;4.00;;;15.50;99.90;;;;;;5122558;28;20203;-86
2022/10/05 04:36:12;;;;;;;5.33;4.17;;;15.40;99.90;;;;;;5121282;28;20214;-90
2022/10/05 04:38:58;;;;;;;4.00;3.60;;;15.40;99.90;;;;;;5122470;28;20192;-89
2022/10/05 04:41:50;;;;;;;3.80;3.50;;;15.60;99.90;;;;;;5122541;28;20195;-89
2022/10/05 04:44:31;;;;;;;5.67;3.40;;;15.50;99.90;;;;;;5121342;28;20199;-88
2022/10/05 04:47:18;;;;;;;3.80;3.03;;;15.50;99.90;;;;;;5119612;28;20211;-89
2022/10/05 04:50:07;;;;;;;3.70;3.40;;;15.60;99.90;;;;;;5118763;28;20194;-91
2022/10/05 04:52:47;;;;;;;4.07;3.00;;;15.50;99.90;;;;;;5119387;28;20204;-90
2022/10/05 04:55:30;;;;;;;4.70;3.50;;;15.50;99.90;;;;;;5118637;28;20216;-91
2022/10/05 04:58:06;;;;;;;4.07;2.57;;;15.50;99.90;;;;;;5118386;28;20201;-90
2022/10/05 05:00:45;;;;;;;6.27;3.50;;;15.60;99.90;;;;;;5117201;28;20195;-91
2022/10/05 05:03:41;;;;;;;4.50;3.10;;;15.70;99.90;;;;;;5117034;28;20231;-89
2022/10/05 05:06:17;;;;;;;8.00;3.53;;;15.60;99.90;;;;;;5120656;28;20210;-89
2022/10/05 05:09:21;;;;;;;6.00;3.83;;;15.60;99.90;;;;;;5124972;28;20208;-89
2022/10/05 05:12:18;;;;;;;4.13;3.83;;;15.70;99.90;;;;;;5121963;28;20210;-89
2022/10/05 05:15:02;;;;;;;4.33;3.50;;;15.60;99.90;;;;;;5124659;28;20235;-91
2022/10/05 05:18:00;;;;;;;5.43;3.63;;;15.50;99.90;;;;;;5123609;28;20517;-89
2022/10/05 05:20:42;;;;;;;3.77;3.47;;;15.50;99.90;;;;;;5123076;28;20194;-92
2022/10/05 05:23:17;;;;;;;3.53;3.23;;;15.50;99.90;;;;;;5122359;28;20190;-89
2022/10/05 05:25:56;;;;;;;3.17;2.87;;;15.60;99.90;;;;;;5122016;28;20217;-86
2022/10/05 05:28:30;;;;;;;4.80;4.23;;;15.70;99.90;;;;;;5118897;28;20208;-88
2022/10/05 05:31:24;;;;;;;3.37;3.03;;;15.70;99.90;;;;;;5116663;28;20198;-89
2022/10/05 05:33:58;;;;;;;4.47;3.27;;;15.70;99.90;;;;;;5116399;28;20225;-89
2022/10/05 05:36:43;;;;;;;3.00;2.80;;;15.60;99.90;;;;;;5115751;28;20202;-86
2022/10/05 05:39:23;;;;;;;4.07;3.10;;;15.60;99.90;;;;;;5115300;28;20241;-85
2022/10/05 05:41:59;;;;;;;4.20;2.90;;;15.60;99.90;;;;;;5114582;28;20275;-87
2022/10/05 05:44:30;;;;;;;5.37;3.10;;;15.60;99.90;;;;;;5115990;28;20279;-88
2022/10/05 05:47:02;;;;;;;4.00;2.80;;;15.60;99.90;;;;;;5116034;28;20589;-88
2022/10/05 05:49:54;;;;;;;6.87;2.90;;;15.70;99.90;;;;;;5115790;28;20211;-87
2022/10/05 05:52:25;;;;;;;4.63;2.50;;;15.70;99.90;;;;;;5113344;28;20206;-88
2022/10/05 05:54:56;;;;;;;7.93;2.83;;;15.80;99.90;;;;;;5115361;28;20233;-88
2022/10/05 05:57:28;;;;;;;3.30;2.80;;;15.80;99.90;;;;;;5114603;28;20214;-88
2022/10/05 06:00:06;;;;;;;6.47;3.03;;;15.80;99.90;;;;;;5114445;28;20567;-89
2022/10/05 06:02:43;;;;;;;3.40;2.90;;;15.70;99.90;;;;;;5115512;28;20227;-89
2022/10/05 06:05:24;;;;;;;3.57;3.27;;;15.70;99.90;;;;;;5115490;28;20218;-85
2022/10/05 06:07:52;;;;;;;5.20;3.23;;;15.70;99.90;;;;;;5115088;28;20201;-91
2022/10/05 06:10:27;;;;;;;2.57;2.30;;;15.70;99.90;;;;;;5116650;28;20553;-89
2022/10/05 06:12:59;;;;;;;4.13;2.50;;;15.80;99.90;;;;;;5115540;28;20565;-85
2022/10/05 06:15:33;;;;;;;3.20;2.90;;;15.80;99.90;;;;;;5115605;28;20227;-84
2022/10/05 06:18:07;;;;;;;2.77;2.57;;;15.80;99.90;;;;;;5115199;28;20191;-86
2022/10/05 06:20:44;;;;;;;5.17;2.63;;;15.70;99.90;;;;;;5115467;28;20199;-88
2022/10/05 06:23:16;;;;;;;2.70;2.50;;;15.80;99.90;;;;;;5116521;28;20206;-89
2022/10/05 06:25:58;;;;;;;3.17;2.87;;;15.80;99.90;;;;;;5115139;28;20210;-87
2022/10/05 06:28:26;;;;;;;5.23;2.77;;;15.80;99.90;;;;;;5115056;28;20199;-84
2022/10/05 06:31:03;;;;;;;5.93;2.90;;;15.90;99.90;;;;;;5113083;28;20199;-87
2022/10/05 06:33:43;;;;;;;5.80;3.00;;;16.00;99.90;;;;;;5109461;28;20210;-81
2022/10/05 06:36:20;;;;;;;4.83;2.83;;;16.00;99.90;;;;;;5113656;28;20219;-87
2022/10/05 06:39:18;;;;;;;3.70;2.77;;;15.90;99.90;;;;;;5114707;28;20211;-86
2022/10/05 06:42:01;;;;;;;4.33;2.57;;;15.90;99.90;;;;;;5110404;28;20200;-84
2022/10/05 06:44:39;;;;;;;5.70;3.07;;;16.10;99.90;;;;;;5112534;28;20647;-85
2022/10/05 06:47:17;;;;;;;7.67;3.47;;;16.10;99.90;;;;;;5111943;28;20196;-84
2022/10/05 06:49:53;;;;;;;5.00;2.80;;;16.10;99.90;;;;;;5113936;28;20203;-84
2022/10/05 06:52:29;;;;;;;4.50;3.07;;;16.20;99.90;;;;;;5113040;28;20185;-84
2022/10/05 06:55:11;;;;;;;3.97;3.13;;;16.30;99.90;;;;;;5110325;28;20678;-84
2022/10/05 06:57:53;;;;;;;6.37;3.33;;;16.20;99.90;;;;;;5111609;28;20204;-85
2022/10/05 07:00:24;;;;;;;5.77;3.23;;;16.30;99.90;;;;;;5112528;28;20200;-84
2022/10/05 07:02:57;;;;;;;4.00;3.20;;;16.30;99.90;;;;;;5113178;28;20216;-85
2022/10/05 07:05:53;;;;;;;5.97;3.23;;;16.30;99.90;;;;;;5113368;28;20210;-83
2022/10/05 07:08:29;;;;;;;4.37;3.33;;;16.30;99.90;;;;;;5113085;28;20208;-84
2022/10/05 07:11:06;;;;;;;7.10;3.50;;;16.20;99.90;;;;;;5113296;28;20207;-85
2022/10/05 07:14:07;;;;;;;4.60;3.60;;;16.20;99.90;;;;;;5114156;28;20211;-85
2022/10/05 07:16:47;;;;;;;4.20;3.37;;;16.10;99.90;;;;;;5113620;28;20213;-85
2022/10/05 07:19:24;;;;;;;5.27;3.70;;;16.10;99.90;;;;;;5111309;28;20200;-85
2022/10/05 07:22:07;;;;;;;5.93;4.20;;;16.10;99.90;;;;;;5113483;28;20215;-85
2022/10/05 07:24:42;;;;;;;3.90;3.10;;;16.20;99.90;;;;;;5113536;28;20715;-85
2022/10/05 07:27:16;;;;;;;4.63;3.47;;;16.20;99.90;;;;;;5113956;28;20223;-85
2022/10/05 07:29:51;;;;;;;5.37;3.23;;;16.20;99.90;;;;;;5113457;28;20204;-84
2022/10/05 07:32:32;;;;;;;4.73;3.00;;;16.30;99.90;;;;;;5113524;28;20192;-85
2022/10/05 07:35:07;;;;;;;5.63;3.23;;;16.30;99.90;;;;;;5110007;28;20216;-85
2022/10/05 07:37:56;;;;;;;5.47;3.50;;;16.40;99.90;;;;;;5112561;28;20575;-84
2022/10/05 07:40:28;;;;;;;4.87;3.27;;;16.40;99.90;;;;;;5113001;28;20328;-85
2022/10/05 07:43:05;;;;;;;6.30;3.50;;;16.40;99.90;;;;;;5113661;28;20206;-85
2022/10/05 07:45:40;;;;;;;6.00;3.17;;;16.40;99.90;;;;;;5113724;28;20219;-84
2022/10/05 07:48:15;;;;;;;3.70;3.37;;;16.40;99.90;;;;;;5116199;28;20198;-85
2022/10/05 07:50:53;;;;;;;5.40;3.07;;;16.40;99.90;;;;;;5117398;28;20210;-84
2022/10/05 07:53:33;;;;;;;4.83;3.37;;;16.40;99.90;;;;;;5117261;28;20188;-89
2022/10/05 07:56:03;;;;;;;4.83;3.37;;;16.40;99.90;;;;;;5116190;28;20419;-85
2022/10/05 07:58:36;;;;;;;5.20;3.13;;;16.50;99.90;;;;;;5118023;28;20536;-91
2022/10/05 08:01:08;;;;;;;6.23;3.20;;;16.50;99.90;;;;;;5120228;28;20196;-89
2022/10/05 08:03:48;;;;;;;3.00;2.80;;;16.60;99.90;;;;;;5118865;28;20266;-88
2022/10/05 08:06:32;;;;;;;3.03;2.70;;;16.70;99.90;;;;;;5118448;28;20201;-89
2022/10/05 08:09:04;;;;;;;4.47;2.67;;;16.90;99.90;;;;;;5118153;28;20210;-89
2022/10/05 08:11:42;;;;;;;3.23;2.80;;;16.80;99.90;;;;;;5118072;28;20212;-88
2022/10/05 08:14:16;;;;;;;4.33;3.20;;;16.80;99.90;;;;;;5118165;28;20320;-85
2022/10/05 08:16:48;;;;;;;3.93;2.97;;;16.70;99.90;;;;;;5117995;28;20220;-88
2022/10/05 08:19:21;;;;;;;4.13;2.80;;;16.80;99.90;;;;;;5119213;28;20201;-87
2022/10/05 08:21:56;;;;;;;6.30;3.00;;;16.80;99.90;;;;;;5117951;28;20212;-89
2022/10/05 08:24:38;;;;;;;6.47;3.20;;;16.90;99.90;;;;;;5118929;28;20278;-88
2022/10/05 08:27:14;;;;;;;3.37;2.63;;;16.90;99.90;;;;;;5119440;28;20263;-88
2022/10/05 08:29:50;;;;;;;4.23;2.47;;;17.00;99.90;;;;;;5124842;28;20205;-87
2022/10/05 08:32:23;;;;;;;3.30;2.90;;;17.10;99.90;;;;;;5117375;28;20251;-86
2022/10/05 08:34:58;;;;;;;4.27;2.70;;;17.10;99.90;;;;;;5116146;28;20215;-86
2022/10/05 08:37:29;;;;;;;6.30;2.10;;;17.10;99.90;;;;;;5117262;28;20259;-85
2022/10/05 08:40:14;;;;;;;4.47;2.50;;;16.90;99.90;;;;;;5116652;28;20205;-86
2022/10/05 08:43:07;;;;;;;5.97;2.60;;;17.00;99.90;;;;;;5116950;27;20213;-86
2022/10/05 08:46:05;;;;;;;4.20;2.27;;;16.90;99.90;;;;;;5116617;28;20197;-87
2022/10/05 08:48:55;;;;;;;3.83;2.20;;;16.90;99.90;;;;;;5116357;28;20220;-86
2022/10/05 08:51:57;;;;;;;2.40;2.00;;;16.90;99.90;;;;;;5116665;28;20193;-87
2022/10/05 08:54:45;;;;;;;3.80;2.20;;;16.90;99.90;;;;;;5116322;28;20545;-81
2022/10/05 08:57:45;;;;;;;3.70;2.30;;;17.00;99.90;;;;;;5115662;28;20338;-82
2022/10/05 09:00:16;;;;;;;3.33;2.37;;;17.00;99.90;;;;;;5116460;28;20206;-87
2022/10/05 09:03:07;;;;;;;2.70;2.50;;;17.00;99.90;;;;;;5116592;28;20220;-85
2022/10/05 09:06:04;;;;;;;2.60;2.40;;;17.00;99.90;;;;;;5116506;27;20200;-86
2022/10/05 09:09:22;;;;;;;2.40;2.20;;;17.00;99.90;;;;;;5099034;28;20200;-86
2022/10/05 09:12:17;;;;;;;2.90;2.17;;;17.20;99.90;;;;;;5090101;28;20209;-86
2022/10/05 09:14:58;;;;;;;2.40;2.30;;;17.20;99.90;;;;;;5114727;27;20252;-85
2022/10/05 09:17:37;;;;;;;3.00;2.30;;;17.30;99.90;;;;;;5116269;28;20206;-90
2022/10/05 09:20:17;;;;;;;2.33;2.13;;;17.30;99.90;;;;;;5116418;28;20197;-89
2022/10/05 09:22:58;;;;;;;2.47;2.27;;;17.30;99.90;;;;;;5117051;28;20186;-89
2022/10/05 09:25:41;;;;;;;3.47;2.23;;;17.30;99.90;;;;;;5117598;28;20215;-89
2022/10/05 09:28:24;;;;;;;2.60;2.10;;;17.40;99.90;;;;;;5117686;28;20203;-87
2022/10/05 09:31:15;;;;;;;2.50;1.90;;;17.40;99.90;;;;;;5117732;28;20231;-89
2022/10/05 09:34:29;;;;;;;2.63;2.13;;;17.50;99.90;;;;;;5117275;27;20205;-87
2022/10/05 09:37:31;;;;;;;4.07;1.77;;;17.70;99.90;;;;;;5058405;28;20271;-87
2022/10/05 09:40:55;;;;;;;5.87;2.43;;;17.70;99.90;;;;;;5134433;28;20207;-86
2022/10/05 09:44:07;;;;;;;3.17;2.27;;;17.80;99.90;;;;;;5070705;28;20215;-87
2022/10/05 09:46:53;;;;;;;2.60;2.37;;;17.80;99.90;;;;;;5133948;28;20205;-86
2022/10/05 09:49:47;;;;;;;2.87;2.30;;;17.80;99.90;;;;;;5132636;28;20203;-85
2022/10/05 09:52:49;;;;;;;2.57;2.23;;;17.80;99.90;;;;;;5132738;28;20239;-86
2022/10/05 09:55:45;;;;;;;4.15;2.70;;;17.70;99.90;;;;;;5120212;28;20804;-90
2022/10/05 09:58:50;;;;;;;2.30;2.10;;;17.80;99.90;;;;;;5115897;28;20206;-89
2022/10/05 10:01:36;;;;;;;3.30;2.10;;;17.70;99.90;;;;;;5116693;28;20195;-86
2022/10/05 10:04:29;;;;;;;2.13;2.03;;;17.80;99.90;;;;;;5114672;28;20203;-83
2022/10/05 10:07:38;;;;;;;3.53;2.10;;;17.80;99.90;;;;;;5114930;28;20219;-85
2022/10/05 10:10:38;;;;;;;3.67;2.50;;;18.00;99.90;;;;;;5115295;28;20216;-85
2022/10/05 10:13:30;;;;;;;3.07;2.03;;;18.00;99.90;;;;;;5114916;28;20568;-86
2022/10/05 10:16:17;;;;;;;4.43;2.37;;;18.00;99.90;;;;;;5114831;28;20254;-87
2022/10/05 10:19:23;;;;;;;2.57;2.10;;;17.90;99.90;;;;;;5114654;28;20199;-87
2022/10/05 10:22:10;;;;;;;3.23;2.10;;;17.90;99.90;;;;;;5101012;27;20206;-84
2022/10/05 10:25:18;;;;;;;2.73;2.23;;;18.00;99.90;;;;;;5114390;28;20239;-85
2022/10/05 10:28:06;;;;;;;3.67;2.40;;;18.10;99.90;;;;;;5114660;28;20199;-86
2022/10/05 10:30:54;;;;;;;2.93;2.33;;;18.20;99.90;;;;;;5114742;27;20211;-85
2022/10/05 10:34:15;;;;;;;8.50;2.40;;;18.20;99.90;;;;;;5114051;28;20208;-84
2022/10/05 10:37:11;;;;;;;2.50;2.10;;;18.20;99.90;;;;;;5068299;28;20350;-85
2022/10/05 10:39:59;;;;;;;2.20;2.10;;;18.30;99.90;;;;;;5112616;28;20294;-84
2022/10/05 10:42:37;;;;;;;6.30;2.00;;;18.30;99.90;;;;;;5114523;28;20651;-86
2022/10/05 10:45:19;;;;;;;6.47;2.40;;;18.30;99.90;;;;;;5114431;28;20214;-84
2022/10/05 10:47:53;;;;;;;4.17;2.37;;;18.30;99.90;;;;;;5112779;28;20254;-85
2022/10/05 10:50:49;;;;;;;4.93;3.07;;;18.40;99.90;;;;;;5114415;28;20209;-85
2022/10/05 10:53:35;;;;;;;2.70;1.67;;;18.60;99.90;;;;;;5114282;28;20257;-83
2022/10/05 10:56:19;;;;;;;4.63;2.00;;;18.60;99.90;;;;;;5114085;28;20229;-84
2022/10/05 10:59:16;;;;;;;4.17;2.30;;;18.60;99.90;;;;;;5114022;28;20204;-86
2022/10/05 11:02:00;;;;;;;4.43;1.90;;;18.70;99.90;;;;;;5114299;28;20212;-84
2022/10/05 11:05:08;;;;;;;2.40;2.20;;;18.70;99.90;;;;;;5114423;28;20208;-88
2022/10/05 11:08:02;;;;;;;2.03;1.70;;;18.90;99.90;;;;;;5108459;27;20196;-84
2022/10/05 11:11:02;;;;;;;3.53;2.70;;;18.90;99.90;;;;;;5114341;28;20204;-85
2022/10/05 11:13:42;;;;;;;4.93;1.80;;;18.90;99.90;;;;;;5099103;28;20208;-82
2022/10/05 11:16:30;;;;;;;4.20;1.60;;;18.90;99.90;;;;;;5113911;28;20236;-86
2022/10/05 11:19:42;;;;;;;5.40;1.90;;;18.80;99.90;;;;;;5113939;28;20212;-87
2022/10/05 11:22:45;;;;;;;3.65;1.83;;;18.90;99.90;;;;;;5104404;28;20425;-82
2022/10/05 11:25:40;;;;;;;3.60;1.80;;;19.00;99.90;;;;;;5076357;28;20246;-81
2022/10/05 11:28:34;;;;;;;4.67;2.00;;;19.00;99.90;;;;;;5117620;28;20200;-82
2022/10/05 11:31:39;;;;;;;2.23;2.00;;;19.00;99.90;;;;;;5117542;28;20204;-81
2022/10/05 11:34:52;;;;;;;2.20;1.60;;;19.00;99.90;;;;;;5117248;28;20256;-83
2022/10/05 11:37:49;;;;;;;10.10;2.40;;;19.00;99.90;;;;;;5116925;28;20228;-82
2022/10/05 11:40:50;;;;;;;3.77;1.57;;;18.90;99.90;;;;;;5117081;28;20200;-83
2022/10/05 11:43:56;;;;;;;3.77;2.10;;;18.80;99.90;;;;;;5113100;28;20210;-86
2022/10/05 11:46:28;;;;;;;3.57;1.90;;;18.90;99.90;;;;;;5041008;28;20682;-86
2022/10/05 11:49:13;;;;;;;3.60;2.17;;;18.90;99.90;;;;;;5117925;28;20208;-84
2022/10/05 11:51:52;;;;;;;3.35;1.83;;;19.00;99.90;;;;;;5117352;28;20433;-86
2022/10/05 11:54:50;;;;;;;3.50;1.53;;;19.10;99.90;;;;;;5117711;28;20210;-87
2022/10/05 11:57:28;;;;;;;2.17;1.40;;;19.30;99.90;;;;;;5112817;28;20631;-86
2022/10/05 12:00:06;;;;;;;1.83;1.70;;;19.30;99.90;;;;;;5118380;28;20205;-87
2022/10/05 12:02:51;;;;;;;3.00;1.57;;;19.30;99.90;;;;;;5132407;27;20989;-84
2022/10/05 12:05:24;;;;;;;2.40;1.67;;;19.20;99.90;;;;;;5137917;27;20204;-86
2022/10/05 12:08:11;;;;;;;2.40;1.70;;;19.20;99.90;;;;;;5137596;27;20200;-85
2022/10/05 12:10:45;;;;;;;3.90;1.73;;;19.10;99.90;;;;;;5137913;27;20744;-87
2022/10/05 12:13:25;;;;;;;2.00;1.80;;;19.10;99.90;;;;;;5118114;27;20221;-87
2022/10/05 12:15:58;;;;;;;1.63;1.43;;;19.10;99.90;;;;;;5117715;28;20273;-87
2022/10/05 12:18:52;;;;;;;8.13;2.17;;;18.90;99.90;;;;;;5121850;28;20666;-89
2022/10/05 12:21:28;;;;;;;3.97;1.67;;;18.80;99.90;;;;;;5117971;28;20188;-87
2022/10/05 12:23:58;;;;;;;3.83;1.77;;;18.70;99.90;;;;;;5117561;28;20212;-86
2022/10/05 12:26:30;;;;;;;5.63;1.77;;;18.70;99.90;;;;;;5117165;28;20234;-87
2022/10/05 12:29:02;;;;;;;2.47;1.77;;;18.80;99.90;;;;;;5117102;28;20200;-87
2022/10/05 12:31:39;;;;;;;1.80;1.70;;;18.70;99.90;;;;;;5117307;28;20204;-88
2022/10/05 12:34:19;;;;;;;5.47;1.80;;;18.60;99.90;;;;;;5116061;28;20215;-89
2022/10/05 12:36:51;;;;;;;4.57;2.20;;;18.70;99.90;;;;;;5116839;28;20223;-88
2022/10/05 12:39:25;;;;;;;3.07;1.87;;;18.60;99.90;;;;;;5117437;28;20218;-87
2022/10/05 12:42:03;;;;;;;9.33;2.63;;;18.60;99.90;;;;;;5117325;28;20210;-89
2022/10/05 12:44:54;;;;;;;3.50;1.90;;;18.60;99.90;;;;;;5117044;28;20230;-88
2022/10/05 12:47:33;;;;;;;6.80;1.70;;;18.60;99.90;;;;;;5116779;28;20248;-87
2022/10/05 12:50:17;;;;;;;4.90;1.80;;;18.70;99.90;;;;;;5117082;28;20522;-88
2022/10/05 12:52:59;;;;;;;9.43;2.03;;;18.60;99.90;;;;;;5116801;27;20215;-88
2022/10/05 12:55:32;;;;;;;1.97;1.50;;;18.60;99.90;;;;;;5116960;28;20213;-88
2022/10/05 12:58:08;;;;;;;2.80;1.60;;;18.70;99.90;;;;;;5116117;28;20238;-89
2022/10/05 13:00:44;;;;;;;5.73;1.73;;;18.70;99.90;;;;;;5116896;28;20659;-87
2022/10/05 13:03:18;;;;;;;1.97;1.73;;;18.70;99.90;;;;;;5116638;28;20220;-88
2022/10/05 13:05:49;;;;;;;4.13;1.63;;;18.60;99.90;;;;;;5116710;28;20208;-88
2022/10/05 13:08:24;;;;;;;3.37;1.40;;;18.40;99.90;;;;;;5115977;28;20207;-86
2022/10/05 13:10:59;;;;;;;3.13;1.60;;;18.30;99.90;;;;;;5116118;28;20558;-86
2022/10/05 13:13:51;;;;;;;1.83;1.50;;;18.30;99.90;;;;;;5115546;28;20206;-85
2022/10/05 13:16:28;;;;;;;1.63;1.30;;;18.20;99.90;;;;;;5113377;28;20316;-85
2022/10/05 13:19:15;;;;;;;2.63;1.73;;;18.10;99.90;;;;;;5115682;28;20557;-86
2022/10/05 13:22:00;;;;;;;4.13;1.70;;;18.10;99.90;;;;;;5113534;28;20195;-86
2022/10/05 13:24:30;;;;;;;3.43;1.60;;;18.10;99.90;;;;;;5114380;28;20195;-85
2022/10/05 13:27:03;;;;;;;3.50;1.37;;;18.10;99.90;;;;;;5115179;28;20189;-86
2022/10/05 13:29:36;;;;;;;3.00;1.70;;;18.10;99.90;;;;;;5115454;28;20205;-86
2022/10/05 13:32:11;;;;;;;3.50;1.40;;;18.10;99.90;;;;;;5113676;28;20709;-86
2022/10/05 13:34:47;;;;;;;2.10;1.60;;;18.00;99.90;;;;;;5113024;28;20685;-82
2022/10/05 13:37:23;;;;;;;2.10;1.50;;;17.90;99.90;;;;;;5107838;28;20233;-85
2022/10/05 13:40:14;;;;;;;2.63;1.63;;;18.00;99.90;;;;;;5114664;28;20195;-85
2022/10/05 13:42:48;;;;;;;3.83;1.50;;;18.00;99.90;;;;;;5112215;28;20192;-85
2022/10/05 13:45:20;;;;;;;3.43;1.57;;;18.10;99.90;;;;;;5114354;28;20248;-85
2022/10/05 13:48:02;;;;;;;1.73;1.50;;;18.10;99.90;;;;;;5114638;28;20204;-85
2022/10/05 13:50:34;;;;;;;5.07;1.70;;;18.00;99.90;;;;;;5113444;28;20198;-84
2022/10/05 13:53:13;;;;;;;4.97;2.00;;;18.10;99.90;;;;;;5112407;28;20204;-85
2022/10/05 13:55:46;;;;;;;6.23;1.60;;;18.20;99.90;;;;;;5111719;28;20194;-85
2022/10/05 13:58:21;;;;;;;3.53;1.70;;;18.10;99.90;;;;;;5114365;28;20231;-84